Time;durP1;ratioP1;P1;durP2;ratioP2;P2;SDS_P1;SDS_P2;PMS_P1;PMS_P2;Temp;Humidity;BMP_temperature;BMP_pressure;BME280_temperature;BME280_humidity;BME280_pressure;Samples;Min_cycle;Max_cycle;Signal;HPM_P1;HPM_P2
2021/10/25 00:01:57;;;;;;;;;45.25;38.25;;;;;;;;5117127;27;8831;-79
2021/10/25 00:04:23;;;;;;;;;42.75;36.25;;;;;;;;5117221;27;8787;-76
2021/10/25 00:06:48;;;;;;;;;41.75;37.00;;;;;;;;5116984;27;8826;-76
2021/10/25 00:09:14;;;;;;;;;45.50;37.50;;;;;;;;5117026;27;8803;-77
2021/10/25 00:11:39;;;;;;;;;41.00;37.25;;;;;;;;5115626;28;8898;-76
2021/10/25 00:14:04;;;;;;;;;45.00;37.50;;;;;;;;5116862;27;9660;-76
2021/10/25 00:16:29;;;;;;;;;47.75;39.00;;;;;;;;5116868;27;8889;-77
2021/10/25 00:18:54;;;;;;;;;45.50;38.50;;;;;;;;5117034;27;8811;-77
2021/10/25 00:21:20;;;;;;;;;45.25;39.25;;;;;;;;5116609;27;8775;-76
2021/10/25 00:23:45;;;;;;;;;41.00;36.25;;;;;;;;5117048;27;8803;-76
2021/10/25 00:26:11;;;;;;;;;43.25;37.00;;;;;;;;5117067;27;8817;-77
2021/10/25 00:28:36;;;;;;;;;41.75;36.50;;;;;;;;5116943;27;8787;-77
2021/10/25 00:31:02;;;;;;;;;45.00;38.00;;;;;;;;5101863;27;9648;-79
2021/10/25 00:33:27;;;;;;;;;44.25;38.50;;;;;;;;5094812;28;8859;-79
2021/10/25 00:35:53;;;;;;;;;44.25;39.00;;;;;;;;5098008;28;9553;-79
2021/10/25 00:38:18;;;;;;;;;41.75;37.25;;;;;;;;5099696;28;8817;-79
2021/10/25 00:40:44;;;;;;;;;51.75;41.75;;;;;;;;5100084;28;9573;-79
2021/10/25 00:43:09;;;;;;;;;46.25;38.75;;;;;;;;5098575;28;8899;-79
2021/10/25 00:45:35;;;;;;;;;44.75;38.00;;;;;;;;5099770;28;8812;-77
2021/10/25 00:48:00;;;;;;;;;26.75;25.50;;;;;;;;5098383;28;8793;-76
2021/10/25 00:50:25;;;;;;;;;36.50;35.00;;;;;;;;5099355;28;8928;-76
2021/10/25 00:52:51;;;;;;;;;36.50;33.75;;;;;;;;5098218;28;8799;-77
2021/10/25 00:55:17;;;;;;;;;38.50;33.00;;;;;;;;5099897;28;8892;-76
2021/10/25 00:57:42;;;;;;;;;35.00;33.00;;;;;;;;5099482;28;8801;-79
2021/10/25 01:00:08;;;;;;;;;36.75;33.75;;;;;;;;5099673;28;8895;-79
2021/10/25 01:02:34;;;;;;;;;39.75;36.00;;;;;;;;5098192;28;8798;-79
2021/10/25 01:04:59;;;;;;;;;42.50;38.00;;;;;;;;5098080;28;10162;-79
2021/10/25 01:07:26;;;;;;;;;37.50;35.50;;;;;;;;5099170;28;8810;-79
2021/10/25 01:09:51;;;;;;;;;37.75;32.00;;;;;;;;5098048;28;8805;-76
2021/10/25 01:12:17;;;;;;;;;30.25;30.25;;;;;;;;5099463;28;10144;-79
2021/10/25 01:14:42;;;;;;;;;33.25;31.00;;;;;;;;5099454;28;8778;-76
2021/10/25 01:17:07;;;;;;;;;32.75;29.00;;;;;;;;5099335;28;8806;-76
2021/10/25 01:19:33;;;;;;;;;29.00;26.67;;;;;;;;5099289;28;8920;-76
2021/10/25 01:21:58;;;;;;;;;31.50;30.50;;;;;;;;5097511;28;8933;-76
2021/10/25 01:24:23;;;;;;;;;27.75;27.75;;;;;;;;5099276;28;8840;-76
2021/10/25 01:26:48;;;;;;;;;26.67;26.67;;;;;;;;5099179;28;8808;-79
2021/10/25 01:29:16;;;;;;;;;28.25;24.00;;;;;;;;5097786;28;8805;-76
2021/10/25 01:31:42;;;;;;;;;25.75;25.75;;;;;;;;5119412;28;8780;-76
2021/10/25 01:34:07;;;;;;;;;35.25;32.75;;;;;;;;5118234;28;9785;-77
2021/10/25 01:36:32;;;;;;;;;24.50;24.50;;;;;;;;5119317;27;8763;-78
2021/10/25 01:38:58;;;;;;;;;33.00;29.75;;;;;;;;5118157;28;8854;-79
2021/10/25 01:41:23;;;;;;;;;28.50;28.50;;;;;;;;5119532;27;8807;-79
2021/10/25 01:43:48;;;;;;;;;25.75;25.75;;;;;;;;5118096;28;8807;-79
2021/10/25 01:46:13;;;;;;;;;30.75;29.50;;;;;;;;5118630;27;8841;-79
2021/10/25 01:48:39;;;;;;;;;24.50;24.50;;;;;;;;5117256;28;8787;-80
2021/10/25 01:51:04;;;;;;;;;23.25;23.25;;;;;;;;5119009;27;9656;-79
2021/10/25 01:53:30;;;;;;;;;28.25;27.25;;;;;;;;5118884;27;8833;-77
2021/10/25 01:55:56;;;;;;;;;27.25;24.50;;;;;;;;5119328;27;8779;-76
2021/10/25 01:58:22;;;;;;;;;24.00;23.25;;;;;;;;5117808;28;8799;-76
2021/10/25 02:00:47;;;;;;;;;27.00;25.00;;;;;;;;5119133;27;9545;-76
2021/10/25 02:03:13;;;;;;;;;22.33;21.67;;;;;;;;5119087;27;8827;-76
2021/10/25 02:05:38;;;;;;;;;26.25;24.00;;;;;;;;5117478;28;8795;-77
2021/10/25 02:08:03;;;;;;;;;24.00;21.75;;;;;;;;5118943;27;8822;-76
2021/10/25 02:10:28;;;;;;;;;22.67;19.00;;;;;;;;5117481;28;8827;-77
2021/10/25 02:12:53;;;;;;;;;19.33;19.33;;;;;;;;5118986;27;8772;-76
2021/10/25 02:15:19;;;;;;;;;24.75;24.75;;;;;;;;5118932;27;8885;-77
2021/10/25 02:17:44;;;;;;;;;19.75;19.75;;;;;;;;5118558;27;8830;-79
2021/10/25 02:20:10;;;;;;;;;23.75;22.75;;;;;;;;5118452;27;8787;-76
2021/10/25 02:22:35;;;;;;;;;18.67;18.67;;;;;;;;5118644;27;8811;-79
2021/10/25 02:25:00;;;;;;;;;20.33;19.00;;;;;;;;5117286;28;8787;-79
2021/10/25 02:27:25;;;;;;;;;25.33;22.33;;;;;;;;5118717;27;8885;-79
2021/10/25 02:29:51;;;;;;;;;23.67;23.00;;;;;;;;5113997;27;8801;-79
2021/10/25 02:32:18;;;;;;;;;22.25;22.25;;;;;;;;5096774;28;8859;-77
2021/10/25 02:34:45;;;;;;;;;21.00;21.00;;;;;;;;5098100;28;8782;-76
2021/10/25 02:37:10;;;;;;;;;23.00;20.33;;;;;;;;5096444;28;9443;-77
2021/10/25 02:39:35;;;;;;;;;20.67;20.00;;;;;;;;5098119;28;9506;-76
2021/10/25 02:42:01;;;;;;;;;28.33;26.00;;;;;;;;5098133;28;8804;-79
2021/10/25 02:44:26;;;;;;;;;27.00;23.00;;;;;;;;5098093;28;8869;-79
2021/10/25 02:46:52;;;;;;;;;27.33;23.00;;;;;;;;5097708;28;8818;-79
2021/10/25 02:49:18;;;;;;;;;23.33;19.67;;;;;;;;5097880;28;8778;-79
2021/10/25 02:51:43;;;;;;;;;22.67;22.67;;;;;;;;5095999;28;11565;-79
2021/10/25 02:54:09;;;;;;;;;25.67;24.00;;;;;;;;5096497;28;8855;-77
2021/10/25 02:56:34;;;;;;;;;24.67;24.67;;;;;;;;5096392;28;8920;-76
2021/10/25 02:58:59;;;;;;;;;25.67;21.33;;;;;;;;5097494;28;8930;-76
2021/10/25 03:01:25;;;;;;;;;22.33;21.33;;;;;;;;5097827;28;8781;-76
2021/10/25 03:03:50;;;;;;;;;27.00;23.00;;;;;;;;5097658;28;8812;-77
2021/10/25 03:06:16;;;;;;;;;24.00;23.33;;;;;;;;5097401;28;8825;-77
2021/10/25 03:08:41;;;;;;;;;20.33;20.33;;;;;;;;5096334;28;8790;-77
2021/10/25 03:11:07;;;;;;;;;21.33;21.33;;;;;;;;5097674;28;9635;-76
2021/10/25 03:13:33;;;;;;;;;24.33;20.67;;;;;;;;5097568;28;8903;-76
2021/10/25 03:15:58;;;;;;;;;20.67;19.00;;;;;;;;5097627;28;8794;-76
2021/10/25 03:18:24;;;;;;;;;23.00;22.00;;;;;;;;5097186;28;8829;-76
2021/10/25 03:20:49;;;;;;;;;23.67;22.67;;;;;;;;5097068;28;9672;-76
2021/10/25 03:23:14;;;;;;;;;20.33;20.00;;;;;;;;5097366;28;8790;-77
2021/10/25 03:25:39;;;;;;;;;23.33;21.33;;;;;;;;5097175;28;8782;-77
2021/10/25 03:28:05;;;;;;;;;22.33;21.33;;;;;;;;5097325;28;8828;-77
2021/10/25 03:30:30;;;;;;;;;19.00;17.00;;;;;;;;5107472;28;8795;-77
2021/10/25 03:32:56;;;;;;;;;17.67;17.33;;;;;;;;5117856;27;8783;-77
2021/10/25 03:35:22;;;;;;;;;19.33;18.67;;;;;;;;5116219;28;9167;-76
2021/10/25 03:37:47;;;;;;;;;20.33;19.00;;;;;;;;5117466;27;8815;-80
2021/10/25 03:40:12;;;;;;;;;17.67;17.67;;;;;;;;5117496;27;8856;-79
2021/10/25 03:42:42;;;;;;;;;19.67;18.67;;;;;;;;5117493;27;9587;-79
2021/10/25 03:47:43;;;;;;;;;19.67;19.33;;;;;;;;5117270;27;9098;-79
2021/10/25 03:50:14;;;;;;;;;18.33;18.33;;;;;;;;5115625;28;8937;-77
2021/10/25 04:00:42;;;;;;;;;16.75;16.00;;;;;;;;5095279;27;9708;-79
2021/10/25 04:30:05;;;;;;;;;22.67;19.00;;;;;;;;5109975;27;8949;-79
2021/10/25 04:32:31;;;;;;;;;23.33;22.00;;;;;;;;5096333;28;9250;-79
2021/10/25 04:34:56;;;;;;;;;17.33;16.67;;;;;;;;5094817;28;9379;-79
2021/10/25 04:37:21;;;;;;;;;19.67;19.33;;;;;;;;5094634;28;8793;-77
2021/10/25 04:39:46;;;;;;;;;20.67;20.67;;;;;;;;5096315;28;8824;-77
2021/10/25 04:42:16;;;;;;;;;20.00;18.00;;;;;;;;5094866;28;8820;-76
2021/10/25 04:44:42;;;;;;;;;23.00;21.67;;;;;;;;5096287;28;8794;-76
2021/10/25 04:47:08;;;;;;;;;22.67;22.67;;;;;;;;5096154;28;9256;-79
2021/10/25 04:49:33;;;;;;;;;21.67;21.67;;;;;;;;5096043;28;9355;-79
2021/10/25 04:51:58;;;;;;;;;19.33;17.67;;;;;;;;5094417;28;8836;-79
2021/10/25 04:54:23;;;;;;;;;22.00;22.00;;;;;;;;5096123;28;8812;-79
2021/10/25 04:56:48;;;;;;;;;22.00;22.00;;;;;;;;5096039;28;8898;-79
2021/10/25 04:59:16;;;;;;;;;21.33;21.33;;;;;;;;5094508;28;9547;-79
2021/10/25 05:01:42;;;;;;;;;24.67;22.00;;;;;;;;5096008;28;8778;-77
2021/10/25 05:04:07;;;;;;;;;25.00;23.00;;;;;;;;5096081;28;9159;-76
2021/10/25 05:06:32;;;;;;;;;22.33;19.33;;;;;;;;5095610;28;9572;-76
2021/10/25 05:08:57;;;;;;;;;24.67;23.33;;;;;;;;5094524;28;8826;-76
2021/10/25 05:11:23;;;;;;;;;20.33;20.33;;;;;;;;5095989;28;8770;-79
2021/10/25 05:13:48;;;;;;;;;22.33;21.00;;;;;;;;5095907;28;8813;-79
2021/10/25 05:16:13;;;;;;;;;22.67;21.00;;;;;;;;5095970;28;8840;-79
2021/10/25 05:18:38;;;;;;;;;22.00;21.33;;;;;;;;5098101;28;8813;-79
2021/10/25 05:21:03;;;;;;;;;25.50;23.50;;;;;;;;5100465;28;8840;-77
2021/10/25 05:23:29;;;;;;;;;23.67;22.67;;;;;;;;5101923;28;8893;-79
2021/10/25 05:25:54;;;;;;;;;21.33;19.00;;;;;;;;5101093;28;9549;-79
2021/10/25 05:28:19;;;;;;;;;20.67;20.67;;;;;;;;5099479;28;8828;-76
2021/10/25 05:30:44;;;;;;;;;20.33;20.33;;;;;;;;5111258;28;8799;-76
2021/10/25 05:33:10;;;;;;;;;20.33;20.33;;;;;;;;5119898;27;8771;-76
2021/10/25 05:35:38;;;;;;;;;23.33;19.33;;;;;;;;5118088;28;8871;-76
2021/10/25 05:38:03;;;;;;;;;24.33;23.00;;;;;;;;5119420;27;8775;-77
2021/10/25 05:40:28;;;;;;;;;20.33;20.33;;;;;;;;5119515;27;9965;-76
2021/10/25 05:42:54;;;;;;;;;22.33;21.67;;;;;;;;5119441;27;8812;-78
2021/10/25 05:45:19;;;;;;;;;25.00;25.00;;;;;;;;5117888;28;8892;-78
2021/10/25 05:47:47;;;;;;;;;23.33;23.33;;;;;;;;5117837;28;9361;-79
2021/10/25 05:50:13;;;;;;;;;21.00;20.00;;;;;;;;5119141;27;8848;-78
2021/10/25 05:52:38;;;;;;;;;24.33;23.00;;;;;;;;5118993;27;9027;-78
2021/10/25 05:55:05;;;;;;;;;21.00;19.67;;;;;;;;5119278;27;8799;-78
2021/10/25 05:57:30;;;;;;;;;22.67;22.67;;;;;;;;5119174;27;8890;-76
2021/10/25 05:59:55;;;;;;;;;26.67;23.00;;;;;;;;5119406;27;9067;-76
2021/10/25 06:04:52;;;;;;;;;21.00;21.00;;;;;;;;5118937;27;8775;-76
2021/10/25 06:07:17;;;;;;;;;25.33;22.00;;;;;;;;5117682;28;9062;-77
2021/10/25 06:09:44;;;;;;;;;21.33;19.67;;;;;;;;5119089;27;8775;-76
2021/10/25 06:12:17;;;;;;;;;23.67;22.00;;;;;;;;5117760;28;8790;-76
2021/10/25 06:14:44;;;;;;;;;21.00;21.00;;;;;;;;5118651;27;8951;-76
2021/10/25 06:19:47;;;;;;;;;24.33;23.33;;;;;;;;5118652;27;9108;-75
2021/10/25 06:22:13;;;;;;;;;22.33;22.33;;;;;;;;5118752;28;9069;-77
2021/10/25 06:24:38;;;;;;;;;17.33;17.33;;;;;;;;5118834;27;8879;-77
2021/10/25 06:27:03;;;;;;;;;19.00;19.00;;;;;;;;5118757;28;8858;-76
2021/10/25 06:29:29;;;;;;;;;21.33;19.33;;;;;;;;5117036;27;8767;-78
2021/10/25 06:31:54;;;;;;;;;22.00;21.00;;;;;;;;5098306;28;8802;-77
2021/10/25 06:34:21;;;;;;;;;21.67;19.67;;;;;;;;5097567;28;8773;-78
2021/10/25 06:36:52;;;;;;;;;20.67;20.67;;;;;;;;5097796;28;8774;-77
2021/10/25 06:40:19;;;;;;;;;24.00;22.33;;;;;;;;5098022;28;9890;-77
2021/10/25 06:42:13;;;;;;;;;18.33;18.33;;;;;;;;5088702;28;9024;-75
2021/10/25 06:44:59;;;;;;;;;22.67;22.67;;;;;;;;5096520;28;9055;-77
2021/10/25 06:47:24;;;;;;;;;22.67;22.00;;;;;;;;5097700;28;8793;-75
2021/10/25 06:49:50;;;;;;;;;24.00;23.00;;;;;;;;5106793;28;8991;-76
2021/10/25 06:52:15;;;;;;;;;25.33;22.00;;;;;;;;5118207;28;8783;-77
2021/10/25 06:54:40;;;;;;;;;17.33;16.00;;;;;;;;5118313;28;8857;-76
2021/10/25 06:57:06;;;;;;;;;24.33;19.33;;;;;;;;5118305;28;9526;-76
2021/10/25 06:59:31;;;;;;;;;24.33;21.67;;;;;;;;5099967;28;8846;-75
2021/10/25 07:01:57;;;;;;;;;21.00;19.67;;;;;;;;5118097;28;8798;-76
2021/10/25 07:04:22;;;;;;;;;23.67;22.33;;;;;;;;5117980;28;8856;-76
2021/10/25 07:06:47;;;;;;;;;25.33;23.33;;;;;;;;5117849;28;8824;-76
2021/10/25 07:09:13;;;;;;;;;20.00;18.33;;;;;;;;5117919;28;8791;-75
2021/10/25 07:11:43;;;;;;;;;21.67;21.67;;;;;;;;5118103;28;8783;-77
2021/10/25 07:14:09;;;;;;;;;23.00;22.67;;;;;;;;5117977;28;8775;-77
2021/10/25 07:16:42;;;;;;;;;23.00;22.67;;;;;;;;5117763;28;9146;-77
2021/10/25 07:22:11;;;;;;;;;25.33;22.33;;;;;;;;5117393;28;8783;-78
2021/10/25 08:11:04;;;;;;;;;18.33;18.33;;;;;;;;5100945;28;8957;-77
2021/10/25 08:13:35;;;;;;;;;22.00;21.33;;;;;;;;5096624;28;8875;-77
2021/10/25 08:16:10;;;;;;;;;22.33;18.67;;;;;;;;5095046;28;9811;-77
2021/10/25 08:21:14;;;;;;;;;20.67;19.67;;;;;;;;5095320;28;8882;-76
2021/10/25 08:23:40;;;;;;;;;25.00;23.00;;;;;;;;5095006;28;8881;-77
2021/10/25 08:26:08;;;;;;;;;28.67;27.00;;;;;;;;5095063;28;8890;-75
2021/10/25 08:28:33;;;;;;;;;29.33;25.33;;;;;;;;5096035;28;10543;-75
2021/10/25 08:31:00;;;;;;;;;24.00;20.33;;;;;;;;5108699;28;9284;-75
2021/10/25 08:33:45;;;;;;;;;21.00;21.00;;;;;;;;5111517;28;8850;-74
2021/10/25 08:36:23;;;;;;;;;21.00;20.33;;;;;;;;5116450;28;9097;-75
2021/10/25 08:41:33;;;;;;;;;20.00;20.00;;;;;;;;5116480;28;8927;-75
2021/10/25 08:44:00;;;;;;;;;19.33;18.00;;;;;;;;5116617;28;9005;-75
2021/10/25 08:46:27;;;;;;;;;29.00;29.00;;;;;;;;5116457;28;9105;-75
2021/10/25 08:48:53;;;;;;;;;35.33;33.00;;;;;;;;5102913;28;9273;-75
2021/10/25 08:51:19;;;;;;;;;39.75;36.25;;;;;;;;5094116;28;9656;-76
2021/10/25 08:53:44;;;;;;;;;42.00;35.50;;;;;;;;5095735;28;9810;-75
2021/10/25 08:56:18;;;;;;;;;33.67;31.00;;;;;;;;5095558;28;8805;-75
2021/10/25 08:58:50;;;;;;;;;37.00;32.00;;;;;;;;5098295;28;8831;-75
2021/10/25 09:01:25;;;;;;;;;26.00;22.67;;;;;;;;5098175;28;9443;-75
2021/10/25 09:04:04;;;;;;;;;28.67;28.67;;;;;;;;5099591;28;9379;-75
2021/10/25 09:06:29;;;;;;;;;31.67;27.67;;;;;;;;5099095;28;9267;-75
2021/10/25 09:08:58;;;;;;;;;25.33;24.33;;;;;;;;5099659;28;9271;-75
2021/10/25 09:11:24;;;;;;;;;25.00;24.67;;;;;;;;5099222;28;8797;-78
2021/10/25 09:13:49;;;;;;;;;26.33;25.33;;;;;;;;5099184;28;8952;-77
2021/10/25 09:16:17;;;;;;;;;24.00;21.67;;;;;;;;5099239;28;9513;-76
2021/10/25 09:18:42;;;;;;;;;27.00;23.00;;;;;;;;5099330;28;8906;-77
2021/10/25 09:21:11;;;;;;;;;27.00;24.67;;;;;;;;5092466;28;8978;-77
2021/10/25 09:23:38;;;;;;;;;18.67;18.67;;;;;;;;5096490;28;8832;-77
2021/10/25 09:26:07;;;;;;;;;24.67;22.67;;;;;;;;5096645;28;9137;-76
2021/10/25 09:28:37;;;;;;;;;26.00;25.33;;;;;;;;5096676;28;9043;-76
2021/10/25 09:31:05;;;;;;;;;24.00;23.33;;;;;;;;5097515;28;8845;-75
2021/10/25 09:33:35;;;;;;;;;24.25;23.25;;;;;;;;5097642;28;8954;-75
2021/10/25 09:36:03;;;;;;;;;28.00;25.67;;;;;;;;5098773;28;8807;-75
2021/10/25 09:49:34;;;;;;;;;23.25;19.50;;;;;;;;5097078;28;8782;-78
2021/10/25 09:52:01;;;;;;;;;22.67;22.00;;;;;;;;5096780;28;8816;-79
2021/10/25 09:54:28;;;;;;;;;28.00;26.25;;;;;;;;5095212;28;8790;-78
2021/10/25 09:57:09;;;;;;;;;29.67;27.33;;;;;;;;5098282;28;9916;-78
2021/10/25 09:59:47;;;;;;;;;30.33;28.33;;;;;;;;5098580;28;8973;-78
2021/10/25 10:02:14;;;;;;;;;29.00;27.67;;;;;;;;5100717;28;8867;-76
2021/10/25 10:04:57;;;;;;;;;32.00;30.00;;;;;;;;5098493;28;9028;-76
2021/10/25 10:07:24;;;;;;;;;24.33;23.67;;;;;;;;5096160;28;9197;-76
2021/10/25 10:09:49;;;;;;;;;30.00;29.33;;;;;;;;5098002;28;9901;-75
2021/10/25 10:12:18;;;;;;;;;29.33;27.00;;;;;;;;5098417;28;8971;-76
2021/10/25 10:14:48;;;;;;;;;28.00;26.33;;;;;;;;5098199;28;8774;-76
2021/10/25 10:17:17;;;;;;;;;30.67;29.67;;;;;;;;5097977;28;9037;-79
2021/10/25 10:19:43;;;;;;;;;27.67;27.33;;;;;;;;5097605;28;8993;-79
2021/10/25 10:22:08;;;;;;;;;29.00;28.33;;;;;;;;5097924;28;8990;-78
2021/10/25 10:24:35;;;;;;;;;30.00;29.33;;;;;;;;5096736;28;8998;-77
2021/10/25 10:27:05;;;;;;;;;28.33;25.67;;;;;;;;5097915;28;8806;-78
2021/10/25 10:29:37;;;;;;;;;28.25;28.25;;;;;;;;5099642;28;8863;-77
2021/10/25 10:32:05;;;;;;;;;27.67;26.33;;;;;;;;5099926;28;8859;-75
2021/10/25 10:34:40;;;;;;;;;29.00;28.00;;;;;;;;5116836;28;10061;-76
2021/10/25 10:37:15;;;;;;;;;26.50;25.25;;;;;;;;5118611;27;8862;-76
2021/10/25 10:39:40;;;;;;;;;30.00;28.25;;;;;;;;5118361;27;8895;-76
2021/10/25 10:42:06;;;;;;;;;28.33;27.00;;;;;;;;5097412;27;8809;-77
2021/10/25 10:44:32;;;;;;;;;28.25;27.00;;;;;;;;5097160;28;8812;-75
2021/10/25 10:47:00;;;;;;;;;27.50;25.50;;;;;;;;5097408;28;8785;-75
2021/10/25 10:49:44;;;;;;;;;30.67;29.33;;;;;;;;5097171;28;8946;-76
2021/10/25 10:52:52;;;;;;;;;33.00;30.33;;;;;;;;5094032;28;8945;-77
2021/10/25 10:55:00;;;;;;;;;29.25;27.25;;;;;;;;5093700;28;8873;-79
2021/10/25 10:57:57;;;;;;;;;28.50;26.75;;;;;;;;5096372;28;8907;-76
2021/10/25 11:00:44;;;;;;;;;31.50;29.75;;;;;;;;5096408;28;8794;-79
2021/10/25 11:03:25;;;;;;;;;30.00;28.50;;;;;;;;5097665;28;8778;-78
2021/10/25 11:05:53;;;;;;;;;29.50;26.00;;;;;;;;5095872;28;8766;-80
2021/10/25 11:08:23;;;;;;;;;31.00;29.67;;;;;;;;5095874;28;8983;-79
2021/10/25 11:10:56;;;;;;;;;32.00;29.33;;;;;;;;5097637;28;8853;-78
2021/10/25 11:13:22;;;;;;;;;32.33;29.33;;;;;;;;5097648;28;8922;-77
2021/10/25 11:15:59;;;;;;;;;32.67;28.00;;;;;;;;5097000;28;9064;-77
2021/10/25 11:18:29;;;;;;;;;28.00;27.25;;;;;;;;5096005;28;9195;-76
2021/10/25 11:21:06;;;;;;;;;29.75;26.75;;;;;;;;5094200;28;8797;-77
2021/10/25 11:23:50;;;;;;;;;30.25;27.50;;;;;;;;5097401;28;8774;-77
2021/10/25 11:26:21;;;;;;;;;28.33;28.00;;;;;;;;5097365;28;8851;-78
2021/10/25 11:29:02;;;;;;;;;32.00;30.33;;;;;;;;5098251;28;8927;-77
2021/10/25 11:31:28;;;;;;;;;30.00;28.33;;;;;;;;5115604;28;8938;-77
2021/10/25 11:33:53;;;;;;;;;31.67;29.00;;;;;;;;5117894;27;8933;-77
2021/10/25 11:36:22;;;;;;;;;27.00;27.00;;;;;;;;5116645;27;8971;-77
2021/10/25 11:38:47;;;;;;;;;34.33;31.00;;;;;;;;5116290;27;8814;-76
2021/10/25 11:41:12;;;;;;;;;31.33;28.00;;;;;;;;5113197;28;8894;-77
2021/10/25 11:43:38;;;;;;;;;33.00;31.00;;;;;;;;5117615;28;8884;-76
2021/10/25 11:46:32;;;;;;;;;31.33;29.00;;;;;;;;5116322;28;8813;-75
2021/10/25 11:48:58;;;;;;;;;36.67;32.00;;;;;;;;5082684;28;8790;-77
2021/10/25 11:51:24;;;;;;;;;30.67;29.00;;;;;;;;5096704;28;9214;-76
2021/10/25 11:54:08;;;;;;;;;29.33;28.00;;;;;;;;5095046;28;9027;-78
2021/10/25 11:56:33;;;;;;;;;31.33;29.33;;;;;;;;5095415;28;9672;-78
2021/10/25 11:58:58;;;;;;;;;33.33;30.67;;;;;;;;5105802;28;9093;-76
2021/10/25 12:01:24;;;;;;;;;32.67;31.00;;;;;;;;5093616;28;8813;-76
2021/10/25 12:03:49;;;;;;;;;31.67;29.33;;;;;;;;5091374;28;8823;-76
2021/10/25 12:06:19;;;;;;;;;34.00;31.33;;;;;;;;5096401;28;8782;-76
2021/10/25 12:09:14;;;;;;;;;34.00;31.00;;;;;;;;5096814;28;8766;-76
2021/10/25 12:11:50;;;;;;;;;34.67;30.67;;;;;;;;5073185;28;8871;-76
2021/10/25 12:14:16;;;;;;;;;32.33;31.00;;;;;;;;5096370;28;9196;-76
2021/10/25 12:16:46;;;;;;;;;29.33;29.00;;;;;;;;5095068;28;8960;-76
2021/10/25 12:19:11;;;;;;;;;32.67;31.33;;;;;;;;5095199;28;8889;-76
2021/10/25 12:21:36;;;;;;;;;35.00;32.67;;;;;;;;5095950;28;9343;-76
2021/10/25 12:24:07;;;;;;;;;35.67;31.33;;;;;;;;5096384;28;8862;-76
2021/10/25 12:26:33;;;;;;;;;29.00;28.00;;;;;;;;5095257;28;8782;-76
2021/10/25 12:28:58;;;;;;;;;38.00;33.67;;;;;;;;5094802;28;9638;-76
2021/10/25 12:31:25;;;;;;;;;38.67;34.00;;;;;;;;5113176;28;8799;-76
2021/10/25 12:33:59;;;;;;;;;35.00;32.33;;;;;;;;5116803;27;8755;-75
2021/10/25 12:36:25;;;;;;;;;32.00;31.00;;;;;;;;5097709;28;9023;-76
2021/10/25 12:38:51;;;;;;;;;33.33;31.00;;;;;;;;5111849;28;9199;-76
2021/10/25 12:41:17;;;;;;;;;33.33;30.00;;;;;;;;5116547;28;11500;-77
2021/10/25 12:43:43;;;;;;;;;33.00;31.00;;;;;;;;5116818;28;9327;-76
2021/10/25 12:46:11;;;;;;;;;28.33;28.33;;;;;;;;5115297;28;8783;-76
2021/10/25 12:48:41;;;;;;;;;31.67;30.67;;;;;;;;5116553;28;9080;-77
2021/10/25 12:51:07;;;;;;;;;27.00;26.33;;;;;;;;5102995;28;9200;-76
2021/10/25 12:53:32;;;;;;;;;27.67;26.33;;;;;;;;5095463;28;8961;-78
2021/10/25 12:55:58;;;;;;;;;25.33;23.67;;;;;;;;5095265;28;8809;-75
2021/10/25 12:58:24;;;;;;;;;21.00;19.00;;;;;;;;5095725;28;8793;-76
2021/10/25 13:00:50;;;;;;;;;22.67;22.67;;;;;;;;5095268;28;8788;-76
2021/10/25 13:03:15;;;;;;;;;25.33;24.00;;;;;;;;5094071;28;11528;-76
2021/10/25 13:05:43;;;;;;;;;27.33;25.00;;;;;;;;5095162;28;8955;-76
2021/10/25 13:08:09;;;;;;;;;22.75;22.00;;;;;;;;5094950;28;8902;-76
2021/10/25 13:10:36;;;;;;;;;21.33;19.67;;;;;;;;5094934;28;8802;-76
2021/10/25 13:13:02;;;;;;;;;17.75;17.75;;;;;;;;5094583;28;8776;-76
2021/10/25 13:15:28;;;;;;;;;27.50;24.50;;;;;;;;5096106;28;8770;-76
2021/10/25 13:17:55;;;;;;;;;24.00;21.33;;;;;;;;5095567;28;8824;-75
2021/10/25 13:20:21;;;;;;;;;26.00;22.75;;;;;;;;5094278;28;8863;-76
2021/10/25 13:22:47;;;;;;;;;23.50;22.50;;;;;;;;5095840;28;8790;-76
2021/10/25 13:25:13;;;;;;;;;23.33;22.33;;;;;;;;5095905;28;8762;-76
2021/10/25 13:27:38;;;;;;;;;20.00;19.00;;;;;;;;5095661;28;11620;-76
2021/10/25 13:30:05;;;;;;;;;23.67;23.00;;;;;;;;5102120;28;8795;-76
2021/10/25 13:32:30;;;;;;;;;21.00;20.25;;;;;;;;5116064;28;8775;-76
2021/10/25 13:34:56;;;;;;;;;21.33;21.33;;;;;;;;5116144;27;8795;-76
2021/10/25 13:37:21;;;;;;;;;20.67;18.33;;;;;;;;5116083;27;8856;-76
2021/10/25 13:39:46;;;;;;;;;19.00;19.00;;;;;;;;5116043;27;8819;-76
2021/10/25 13:42:12;;;;;;;;;20.00;19.33;;;;;;;;5114891;28;8828;-76
2021/10/25 13:44:37;;;;;;;;;19.33;19.33;;;;;;;;5118864;27;8803;-76
2021/10/25 13:47:02;;;;;;;;;21.33;20.67;;;;;;;;5119480;27;8801;-76
2021/10/25 13:49:28;;;;;;;;;19.67;17.67;;;;;;;;5118007;28;8968;-76
2021/10/25 13:51:53;;;;;;;;;18.67;17.33;;;;;;;;5119299;27;8797;-76
2021/10/25 13:54:18;;;;;;;;;19.33;17.33;;;;;;;;5119413;27;8791;-76
2021/10/25 13:56:43;;;;;;;;;18.00;16.67;;;;;;;;5118054;28;8829;-76
2021/10/25 13:59:09;;;;;;;;;13.33;13.33;;;;;;;;5119313;27;8811;-76
2021/10/25 14:01:34;;;;;;;;;20.33;19.33;;;;;;;;5119521;27;8775;-76
2021/10/25 14:03:59;;;;;;;;;18.67;18.67;;;;;;;;5119196;27;8779;-76
2021/10/25 14:06:27;;;;;;;;;18.33;17.33;;;;;;;;5117473;28;9267;-76
2021/10/25 14:08:54;;;;;;;;;19.25;17.50;;;;;;;;5119167;27;8795;-76
2021/10/25 14:11:20;;;;;;;;;17.00;17.00;;;;;;;;5118597;27;8865;-76
2021/10/25 14:18:47;;;;;;;;;17.00;16.25;;;;;;;;5118480;28;9653;-76
2021/10/25 14:21:15;;;;;;;;;19.33;19.00;;;;;;;;5117000;28;8873;-77
2021/10/25 14:23:44;;;;;;;;;18.25;18.00;;;;;;;;5101009;28;8783;-76
2021/10/25 14:26:10;;;;;;;;;16.00;16.00;;;;;;;;5103803;28;8823;-77
2021/10/25 14:28:36;;;;;;;;;13.67;13.67;;;;;;;;5105103;28;8803;-78
2021/10/25 14:31:01;;;;;;;;;16.00;15.67;;;;;;;;5118232;28;8826;-77
2021/10/25 14:33:27;;;;;;;;;18.67;17.33;;;;;;;;5118851;27;8891;-76
2021/10/25 14:35:53;;;;;;;;;20.67;17.00;;;;;;;;5110874;27;8894;-78
2021/10/25 14:43:54;;;;;;;;;19.00;18.67;;;;;;;;5113809;28;9449;-79
2021/10/25 14:46:51;;;;;;;;;17.25;16.50;;;;;;;;5101888;28;8808;-79
2021/10/25 14:54:33;;;;;;;;;578.80;565.80;;;;;;;;5098325;28;8786;-78
2021/10/25 14:56:59;;;;;;;;;246.00;240.50;;;;;;;;5097942;28;8784;-77
2021/10/25 14:59:24;;;;;;;;;640.33;619.00;;;;;;;;5099091;28;8809;-77
2021/10/25 15:01:49;;;;;;;;;219.75;219.00;;;;;;;;5119705;28;8846;-77
2021/10/25 15:04:16;;;;;;;;;209.75;206.50;;;;;;;;5120313;28;8771;-80
2021/10/25 15:06:41;;;;;;;;;756.17;742.00;;;;;;;;5101207;28;8808;-79
2021/10/25 15:09:06;;;;;;;;;57.50;47.50;;;;;;;;5111628;28;8815;-81
2021/10/25 15:11:31;;;;;;;;;46.00;39.75;;;;;;;;5113679;28;8778;-80
2021/10/25 15:13:57;;;;;;;;;25.33;25.33;;;;;;;;5102292;28;8789;-80
2021/10/25 15:16:24;;;;;;;;;23.33;23.33;;;;;;;;5108316;28;8859;-81
2021/10/25 15:18:51;;;;;;;;;18.00;17.00;;;;;;;;5103863;28;8915;-78
2021/10/25 15:21:19;;;;;;;;;20.50;20.50;;;;;;;;5103510;28;8902;-78
2021/10/25 15:23:45;;;;;;;;;20.25;20.00;;;;;;;;5101994;28;8772;-78
2021/10/25 15:26:11;;;;;;;;;19.25;18.25;;;;;;;;5100807;28;8883;-77
2021/10/25 15:28:36;;;;;;;;;20.00;20.00;;;;;;;;5103751;28;8838;-78
2021/10/25 15:31:01;;;;;;;;;16.00;16.00;;;;;;;;5096142;28;8813;-77
2021/10/25 15:33:26;;;;;;;;;16.67;16.67;;;;;;;;5107129;28;8835;-79
2021/10/25 15:35:54;;;;;;;;;21.00;18.33;;;;;;;;5112765;28;8803;-78
2021/10/25 15:38:20;;;;;;;;;18.00;17.00;;;;;;;;5115246;28;8815;-77
2021/10/25 15:40:45;;;;;;;;;16.50;15.50;;;;;;;;5116600;28;8830;-79
2021/10/25 15:43:10;;;;;;;;;17.67;17.33;;;;;;;;5100276;28;8849;-81
2021/10/25 15:45:36;;;;;;;;;17.00;17.00;;;;;;;;5120275;28;8899;-80
2021/10/25 15:48:01;;;;;;;;;14.33;14.33;;;;;;;;5100441;28;8798;-81
2021/10/25 15:50:29;;;;;;;;;16.67;16.67;;;;;;;;5099214;28;8809;-79
2021/10/25 15:52:59;;;;;;;;;19.00;17.25;;;;;;;;5102010;28;8777;-80
2021/10/25 15:55:24;;;;;;;;;15.50;13.50;;;;;;;;5098290;28;8786;-78
2021/10/25 15:57:50;;;;;;;;;18.00;17.00;;;;;;;;5097168;28;8797;-76
2021/10/25 16:00:15;;;;;;;;;16.25;16.25;;;;;;;;5095471;28;8981;-77
2021/10/25 16:02:41;;;;;;;;;15.00;14.00;;;;;;;;5098258;28;8801;-77
2021/10/25 16:05:06;;;;;;;;;13.00;12.00;;;;;;;;5095384;28;8825;-77
2021/10/25 16:07:31;;;;;;;;;13.33;13.33;;;;;;;;5098337;28;8833;-77
2021/10/25 16:09:57;;;;;;;;;13.67;13.67;;;;;;;;5114355;28;8818;-77
2021/10/25 16:12:22;;;;;;;;;13.00;13.00;;;;;;;;5117287;28;8776;-76
2021/10/25 16:14:47;;;;;;;;;17.67;16.00;;;;;;;;5112844;28;9691;-77
2021/10/25 16:17:13;;;;;;;;;15.00;15.00;;;;;;;;5095540;28;8845;-77
2021/10/25 16:19:42;;;;;;;;;15.00;15.00;;;;;;;;5096334;28;8817;-76
2021/10/25 16:22:07;;;;;;;;;13.00;12.50;;;;;;;;5096513;28;8829;-77
2021/10/25 16:24:32;;;;;;;;;15.00;13.00;;;;;;;;5096306;28;8900;-78
2021/10/25 16:26:57;;;;;;;;;17.00;14.33;;;;;;;;5096581;28;8911;-78
2021/10/25 16:29:23;;;;;;;;;13.33;12.33;;;;;;;;5101006;28;8802;-80
2021/10/25 16:31:48;;;;;;;;;14.67;12.67;;;;;;;;5123043;27;8775;-80
2021/10/25 16:34:15;;;;;;;;;12.67;12.67;;;;;;;;5125785;28;8800;-80